Latest Weather Observations for Murrurundi Gap

IDN60801

Issued at 6:23 pm EDT Monday 17 January 2022 (issued every 10 minutes, with the page automatically refreshed every 10 minutes)

About weather observations | Map of weather stations | Latest weather observations for NSW | Other Formats
Station Details ID: 061392 Name: MURRURUNDI GAP AWS Lat: -31.74 Lon: 150.79 Height: 729.4 m
Data from the previous 72 hours. | See also: Recent months at Murrurundi Gap
Date/Time
EDT
Temp
°C
App
Temp
°C
Dew
Point
°C
Rel
Hum
%
Delta-T
°C
Wind Press
QNH
hPa
Press
MSL
hPa
Rain since
9am
mm
Dir  Spd
km/h
Gust
km/h
Spd
kts
Gust
kts
17/06:00pm 28.3 27.5 17.2 51 7.2 SSE 17 22 9 12 1011.2 1006.9 0.0
17/05:30pm 28.3 27.2 17.2 51 7.2 SE 19 26 10 14 1011.2 1006.9 0.0
17/05:00pm 29.0 28.4 17.5 49 7.5 SSE 17 24 9 13 1011.4 1007.0 0.0
17/04:30pm 28.7 27.8 18.2 53 6.9 SSE 20 28 11 15 1011.6 1007.2 0.0
17/04:00pm 29.5 29.8 20.4 58 6.2 SE 19 26 10 14 1011.6 1007.2 0.0
17/03:30pm 28.0 28.3 19.5 60 5.7 SE 17 26 9 14 1011.8 1007.5 0.0
17/03:00pm 29.3 29.4 17.5 49 7.7 ESE 13 19 7 10 1012.0 1007.7 0.0
17/02:30pm 30.1 30.4 16.1 42 9.0 WSW 9 15 5 8 1012.0 1007.7 0.0
17/02:00pm 29.2 29.1 15.0 42 8.9 ENE 9 13 5 7 1012.2 1007.9 0.0
17/01:30pm 28.8 30.0 17.3 49 7.5 SW 7 11 4 6 1012.6 1008.3 0.0
17/01:00pm 29.2 31.0 18.3 51 7.2 ENE 6 7 3 4 1013.1 1008.8 0.0
17/12:30pm 27.6 30.0 18.9 59 5.8 E 4 13 2 7 1013.5 1009.2 0.0
17/12:00pm 27.7 29.7 20.0 63 5.2 ESE 9 13 5 7 1013.4 1009.1 0.0
17/11:30am 26.1 27.6 19.7 68 4.3 ESE 11 17 6 9 1013.5 1009.2 0.0
17/11:00am 25.1 26.1 19.5 71 3.7 ESE 13 17 7 9 1013.7 1009.4 0.0
17/10:30am 24.2 25.1 19.3 74 3.2 ESE 13 17 7 9 1013.9 1009.6 0.0
17/10:00am 22.0 21.8 18.4 80 2.3 ESE 17 20 9 11 1013.9 1009.6 0.0
17/09:31am 19.9 19.5 18.0 89 1.2 ESE 17 20 9 11 1013.6 1009.3 0.0
17/09:30am 19.5 19.0 17.8 90 1.1 ESE 17 20 9 11 1013.6 1009.3 0.0
17/09:00am 19.3 18.9 19.3 100 0.0 SE 20 26 11 14 1013.8 1009.5 0.0
17/08:34am 18.1 17.2 18.1 100 0.0 ESE 20 26 11 14 1013.7 1009.4 0.0
17/08:30am 18.2 16.9 18.2 100 0.0 SE 22 28 12 15 1013.7 1009.4 0.0
17/08:00am 18.2 17.3 18.2 100 0.0 ESE 20 24 11 13 1013.6 1009.3 0.0
17/07:30am 17.9 16.1 17.9 100 0.0 SE 24 28 13 15 1013.6 1009.3 0.0
17/07:00am 18.0 16.3 18.0 100 0.0 SE 24 28 13 15 1013.2 1008.9 0.0
17/06:30am 18.0 16.3 18.0 100 0.0 SE 24 30 13 16 1012.1 1007.8 0.0
17/06:00am 18.1 16.4 18.1 100 0.0 SE 24 30 13 16 1012.3 1008.0 0.0
17/05:30am 18.2 16.9 18.2 100 0.0 ESE 22 26 12 14 1012.1 1007.8 0.0
17/05:00am 18.2 17.3 18.2 100 0.0 ESE 20 26 11 14 1012.0 1007.7 0.0
17/04:30am 18.5 17.7 18.5 100 0.0 SE 20 24 11 13 1012.3 1008.0 0.0
17/04:00am 18.6 17.5 18.6 100 0.0 SE 22 26 12 14 1012.0 1007.7 0.0
17/03:30am 18.5 17.9 18.5 100 0.0 ESE 19 24 10 13 1012.3 1008.0 0.0
17/03:00am 18.6 18.4 18.6 100 0.0 ESE 17 20 9 11 1012.5 1008.2 0.0
17/02:30am 18.5 18.7 18.5 100 0.0 ESE 15 19 8 10 1012.5 1008.2 0.0
17/02:00am 18.3 18.8 18.3 100 0.0 SE 13 15 7 8 1012.9 1008.5 0.0
17/01:47am 18.3 19.2 18.3 100 0.0 SE 11 13 6 7 1013.0 1008.6 0.0
17/01:30am 18.5 19.0 18.3 99 0.1 ESE 13 17 7 9 1013.0 1008.6 0.0
17/01:22am 18.5 18.9 18.2 98 0.2 ESE 13 17 7 9 1013.0 1008.6 0.0
17/01:00am 19.3 19.1 18.5 95 0.5 SE 17 20 9 11 1012.5 1008.2 0.0
17/12:30am 19.9 19.4 18.6 92 0.8 SE 19 20 10 11 1012.4 1008.1 0.0
17/12:00am 19.8 19.0 18.5 92 0.8 SE 20 24 11 13 1011.7 1007.3 0.0
 
Date/Time
EDT
Temp
°C
App
Temp
°C
Dew
Point
°C
Rel
Hum
%
Delta-T
°C
Wind Press
QNH
hPa
Press
MSL
hPa
Rain since
9am
mm
Dir  Spd
km/h
Gust
km/h
Spd
kts
Gust
kts
16/11:30pm 20.0 19.6 18.1 89 1.2 ESE 17 20 9 11 1012.6 1008.3 0.0
16/11:00pm 21.4 19.9 18.6 84 1.8 SE 24 28 13 15 1012.6 1008.3 0.0
16/10:30pm 21.7 19.7 18.3 81 2.2 SE 26 33 14 18 1012.5 1008.2 0.0
16/10:00pm 21.2 20.3 18.2 83 1.9 SE 20 26 11 14 1012.2 1007.9 0.0
16/09:30pm 22.2 21.3 18.2 78 2.6 SE 20 26 11 14 1012.2 1007.9 0.0
16/09:00pm 22.5 22.0 17.8 75 3.0 SE 17 20 9 11 1011.8 1007.5 0.0
16/08:30pm 23.1 21.8 18.2 74 3.2 SE 22 26 12 14 1011.2 1006.9 0.0
16/08:00pm 23.5 22.4 17.7 70 3.7 SE 20 26 11 14 1010.8 1006.5 0.0
16/07:30pm 24.7 22.1 16.9 62 5.0 SE 26 30 14 16 1010.6 1006.3 0.0
16/07:00pm 25.7 24.3 17.9 62 5.1 SE 22 32 12 17 1010.2 1005.8 0.0
16/06:30pm 26.2 25.1 17.8 60 5.4 SE 20 32 11 17 1009.6 1005.3 0.0
16/06:00pm 26.7 25.2 17.8 58 5.8 SE 22 32 12 17 1009.6 1005.3 0.0
16/05:30pm 27.3 26.3 18.0 56 6.1 SE 20 26 11 14 1009.5 1005.2 0.0
16/05:00pm 27.8 26.8 17.6 53 6.6 SE 19 26 10 14 1009.6 1005.3 0.0
16/04:30pm 28.3 28.1 18.4 55 6.5 SE 17 26 9 14 1009.9 1005.5 0.0
16/04:00pm 28.4 28.0 18.8 56 6.4 ESE 19 26 10 14 1010.1 1005.7 0.0
16/03:30pm 27.7 28.5 19.0 59 5.8 ESE 13 22 7 12 1010.0 1005.6 0.0
16/03:00pm 27.9 28.8 18.3 56 6.3 SE 11 17 6 9 1010.2 1005.8 0.0
16/02:30pm 27.2 28.7 17.7 56 6.2 ESE 6 11 3 6 1010.5 1006.1 0.0
16/02:00pm 27.9 28.9 19.4 60 5.7 SE 13 17 7 9 1010.7 1006.4 0.0
16/01:30pm 27.9 28.7 17.4 52 6.8 NW 9 13 5 7 1011.0 1006.7 0.0
16/01:00pm 27.0 27.6 18.6 60 5.5 NW 13 24 7 13 1011.4 1007.0 0.0
16/12:30pm 26.3 26.2 17.9 60 5.5 WNW 15 20 8 11 1011.6 1007.2 0.0
16/12:00pm 26.6 27.8 20.0 67 4.4 NW 13 19 7 10 1011.7 1007.3 0.0
16/11:30am 25.6 25.4 18.5 65 4.6 NNW 17 24 9 13 1011.7 1007.3 0.0
16/11:00am 25.5 25.2 19.2 68 4.2 WNW 19 26 10 14 1011.8 1007.5 0.0
16/10:30am 24.8 24.0 18.0 66 4.4 WNW 19 26 10 14 1011.6 1007.2 0.0
16/10:00am 24.0 23.2 17.0 65 4.5 NNW 17 20 9 11 1011.5 1007.1 0.0
16/09:30am 24.0 23.1 17.7 68 4.0 NNW 19 22 10 12 1011.6 1007.2 0.0
16/09:00am 23.1 21.7 16.6 67 4.1 NW 19 24 10 13 1011.5 1007.1 6.2
16/08:30am 22.3 20.9 15.6 66 4.1 NW 17 19 9 10 1011.1 1006.8 6.2
16/08:00am 21.8 21.4 16.1 70 3.6 NW 13 15 7 8 1010.9 1006.6 6.2
16/07:30am 19.6 19.0 15.7 78 2.4 NW 13 17 7 9 1010.6 1006.3 6.2
16/07:00am 19.2 18.1 15.3 78 2.4 NNW 15 19 8 10 1010.2 1005.8 6.2
16/06:30am 18.2 18.4 15.8 86 1.5 NW 9 11 5 6 1010.1 1005.7 6.2
16/06:00am 18.1 17.2 15.9 87 1.3 NW 15 19 8 10 1009.7 1005.4 6.2
16/05:30am 17.3 16.0 15.8 91 0.9 WNW 17 20 9 11 1009.4 1005.1 6.2
16/05:00am 17.2 14.3 16.2 94 0.6 NW 26 28 14 15 1008.9 1004.5 6.2
16/04:30am 17.4 14.5 16.1 92 0.8 NW 26 28 14 15 1008.5 1004.1 6.2
16/04:00am 17.7 14.8 16.2 91 0.9 NW 26 28 14 15 1008.5 1004.1 6.2
16/03:30am 18.0 15.2 16.3 90 1.0 NW 26 30 14 16 1008.6 1004.2 6.2
16/03:00am 18.0 15.6 16.3 90 1.0 WNW 24 28 13 15 1008.2 1003.9 6.2
16/02:30am 18.8 17.2 15.9 83 1.8 WNW 19 22 10 12 1008.3 1004.0 6.2
16/02:00am 19.5 18.3 16.0 80 2.2 WNW 17 20 9 11 1008.5 1004.1 6.2
16/01:30am 18.7 17.1 16.1 85 1.6 WNW 19 22 10 12 1008.7 1004.3 6.2
16/01:00am 20.1 20.6 14.9 72 3.2 ENE 6 15 3 8 1008.5 1004.1 6.2
16/12:30am 21.4 21.8 15.3 68 3.7 ESE 7 9 4 5 1008.6 1004.2 6.2
16/12:00am 20.9 21.7 16.3 75 2.9 ESE 7 11 4 6 1009.0 1004.6 6.2
 
Date/Time
EDT
Temp
°C
App
Temp
°C
Dew
Point
°C
Rel
Hum
%
Delta-T
°C
Wind Press
QNH
hPa
Press
MSL
hPa
Rain since
9am
mm
Dir  Spd
km/h
Gust
km/h
Spd
kts
Gust
kts
15/11:30pm 19.8 20.0 17.6 87 1.4 ESE 13 17 7 9 1009.1 1004.7 6.2
15/11:00pm 18.5 18.3 18.5 100 0.0 ESE 17 20 9 11 1009.1 1004.7 6.2
15/10:30pm 18.4 17.6 18.4 100 0.0 ESE 20 22 11 12 1008.8 1004.4 6.2
15/10:22pm 18.4 17.8 18.4 100 0.0 ESE 19 20 10 11 1009.1 1004.7 6.2
15/10:08pm 18.2 17.5 18.2 100 0.0 ESE 19 20 10 11 1009.3 1005.0 6.2
15/10:00pm 18.3 17.6 18.3 100 0.0 ESE 19 20 10 11 1009.3 1005.0 6.2
15/09:58pm 18.3 17.6 18.3 100 0.0 ESE 19 20 10 11 1009.4 1005.1 6.2
15/09:39pm 18.3 17.6 18.3 100 0.0 ESE 19 22 10 12 1009.0 1004.6 6.2
15/09:30pm 18.3 17.6 18.3 100 0.0 SE 19 22 10 12 1009.0 1004.6 6.2
15/09:00pm 18.3 17.1 18.3 100 0.0 SE 22 26 12 14 1008.8 1004.4 6.2
15/08:53pm 18.4 17.2 18.4 100 0.0 SE 22 26 12 14 1008.8 1004.4 6.2
15/08:30pm 18.4 17.7 18.2 99 0.1 SE 19 22 10 12 1009.1 1004.7 6.2
15/08:00pm 19.0 19.5 18.3 96 0.4 SE 13 15 7 8 1009.6 1005.3 6.2
15/07:30pm 18.8 20.0 18.3 97 0.3 NNW 9 15 5 8 1008.5 1004.1 6.2
15/07:20pm 18.7 17.8 18.2 97 0.3 NW 20 33 11 18 1007.9 1003.5 6.0
15/07:11pm 19.0 18.1 18.2 95 0.5 NE 20 54 11 29 1007.3 1002.9 6.0
15/07:10pm 18.7 17.9 18.0 96 0.4 ESE 19 54 10 29 1006.6 1002.2 6.0
15/07:09pm 18.5 18.0 17.7 95 0.5 ESE 17 54 9 29 1006.0 1001.6 6.0
15/07:07pm 19.3 20.2 18.3 94 0.6 SE 11 22 6 12 1006.2 1001.8 6.0
15/07:00pm 19.3 18.9 18.1 93 0.8 SSE 17 20 9 11 1007.7 1003.3 6.0
15/06:53pm 19.2 19.1 18.7 97 0.3 SE 17 20 9 11 1006.4 1002.0 6.0
15/06:44pm 19.0 18.6 19.0 100 0.0 SE 19 24 10 13 1008.9 1004.5 6.0
15/06:38pm 19.0 19.0 19.0 100 0.0 SE 17 24 9 13 1008.8 1004.4 6.0
15/06:35pm 19.1 19.5 19.1 100 0.0 ESE 15 20 8 11 1010.8 1006.5 6.0
15/06:30pm 18.9 20.0 18.9 100 0.0 E 11 17 6 9 1009.3 1005.0 6.0
15/06:00pm 19.8 18.2 19.1 96 0.5 S 26 41 14 22 1008.9 1004.5 3.4
15/05:59pm 19.9 17.9 19.2 96 0.5 SSE 28 41 15 22 1008.8 1004.4 3.2
15/05:56pm 19.8 17.8 19.1 96 0.5 SSE 28 41 15 22 1008.2 1003.9 3.2
15/05:32pm 19.7 17.0 17.5 87 1.4 SSE 28 57 15 31 1007.6 1003.2 1.2
15/05:31pm 20.6 18.4 17.8 84 1.8 SSE 26 44 14 24 1007.7 1003.3 1.0
15/05:30pm 21.1 19.3 17.9 82 2.0 SSE 24 37 13 20 1007.7 1003.3 0.8
15/05:27pm 21.3 19.7 17.5 79 2.4 SE 22 33 12 18 1007.6 1003.2 0.6
15/05:00pm 26.5 26.8 16.1 52 6.6 NW 9 13 5 7 1007.2 1002.8 0.0
15/04:44pm 26.8 27.6 16.4 53 6.6 NW 7 11 4 6 1007.5 1003.1 0.0
15/04:30pm 27.1 26.9 15.8 50 7.1 WNW 11 15 6 8 1007.4 1003.0 0.0
15/04:00pm 28.0 27.3 16.3 49 7.5 NW 15 22 8 12 1007.1 1002.7 0.0
15/03:30pm 27.3 25.2 15.3 48 7.5 NNW 20 28 11 15 1007.3 1002.9 0.0
15/03:00pm 28.5 26.9 16.1 47 7.9 NNW 19 28 10 15 1008.1 1003.8 0.0
15/02:30pm 28.6 27.7 18.1 53 6.9 NNW 20 37 11 20 1008.5 1004.1 0.0
15/02:00pm 27.0 25.6 16.9 54 6.5 NW 20 28 11 15 1009.1 1004.7 0.0
15/01:30pm 25.8 22.7 15.5 53 6.4 NW 26 37 14 20 1009.5 1005.2 0.0
15/01:00pm 26.5 24.1 16.4 53 6.4 NNW 24 33 13 18 1009.5 1005.2 0.0
15/12:30pm 26.1 23.0 16.6 55 6.0 NW 28 39 15 21 1009.6 1005.3 0.0
15/12:00pm 25.7 22.0 16.0 55 6.1 NW 30 44 16 24 1009.5 1005.2 0.0
15/11:30am 25.6 19.9 16.2 56 5.9 WNW 41 50 22 27 1009.3 1005.0 0.0
15/11:28am 25.2 19.3 15.8 56 5.9 WNW 41 52 22 28 1009.2 1004.8 0.0
15/11:00am 24.7 19.6 15.9 58 5.5 NNW 37 48 20 26 1009.5 1005.2 0.0
15/10:30am 24.0 19.7 16.0 61 5.0 NW 33 44 18 24 1009.6 1005.3 0.0
15/10:00am 23.2 18.5 15.8 63 4.6 NW 35 43 19 23 1009.4 1005.1 0.0
15/09:30am 22.6 17.8 15.7 65 4.3 NNW 35 48 19 26 1009.9 1005.5 0.0
15/09:00am 22.0 16.8 15.6 67 4.0 NW 37 50 20 27 1009.7 1005.4 0.0
15/08:30am 20.7 14.9 15.0 70 3.5 NW 39 52 21 28 1009.6 1005.3 0.0
15/08:00am 20.4 14.9 14.7 70 3.5 NW 37 46 20 25 1009.9 1005.5 0.0
15/07:30am 20.1 15.3 14.7 71 3.3 NW 33 43 18 23 1009.7 1005.4 0.0
15/07:00am 19.4 14.7 14.4 73 3.0 NW 32 37 17 20 1009.6 1005.3 0.0
15/06:30am 18.3 14.8 14.4 78 2.3 NW 26 30 14 16 1009.6 1005.3 0.0
15/06:00am 18.7 14.8 14.4 76 2.6 NW 28 32 15 17 1009.6 1005.3 0.0
15/05:30am 18.5 14.9 14.2 76 2.6 NW 26 33 14 18 1009.2 1004.8 0.0
15/05:00am 18.4 14.1 14.3 77 2.4 NW 30 35 16 19 1008.8 1004.4 0.0
15/04:30am 19.6 14.5 13.8 69 3.4 NW 33 43 18 23 1008.6 1004.2 0.0
15/04:00am 20.2 16.1 13.9 67 3.8 NW 28 35 15 19 1008.5 1004.1 0.0
15/03:30am 19.6 16.6 13.8 69 3.4 NW 22 28 12 15 1008.6 1004.2 0.0
15/03:00am 20.1 17.8 14.0 68 3.6 NW 19 26 10 14 1008.7 1004.3 0.0
15/02:30am 20.4 18.5 14.1 67 3.8 NNW 17 22 9 12 1008.9 1004.5 0.0
15/02:00am 20.8 19.3 14.2 66 4.0 NNW 15 22 8 12 1009.2 1004.8 0.0
15/01:30am 20.5 18.6 14.2 67 3.8 NNW 17 24 9 13 1009.9 1005.5 0.0
15/01:00am 20.7 20.0 14.4 67 3.8 NW 11 15 6 8 1010.1 1005.7 0.0
15/12:30am 21.1 20.5 14.5 66 4.0 NW 11 15 6 8 1010.4 1006.0 0.0
15/12:00am 21.8 20.7 14.2 62 4.6 NNW 13 19 7 10 1010.6 1006.3 0.0
 
Date/Time
EDT
Temp
°C
App
Temp
°C
Dew
Point
°C
Rel
Hum
%
Delta-T
°C
Wind Press
QNH
hPa
Press
MSL
hPa
Rain since
9am
mm
Dir  Spd
km/h
Gust
km/h
Spd
kts
Gust
kts
14/11:30pm 22.7 21.2 14.3 59 5.1 N 15 20 8 11 1010.7 1006.4 0.0
14/11:00pm 22.0 22.5 14.9 64 4.3 NNE 6 11 3 6 1011.1 1006.8 0.0
14/10:59pm 21.9 22.6 15.7 68 3.8 NNE 6 11 3 6 1011.1 1006.8 0.0
14/10:40pm 20.4 21.0 16.8 80 2.3 SE 9 11 5 6 1011.4 1007.0 0.0
14/10:30pm 19.8 20.3 17.4 86 1.5 ESE 11 13 6 7 1011.5 1007.1 0.0
14/10:00pm 19.9 20.0 17.5 86 1.5 ESE 13 15 7 8 1011.6 1007.2 0.0
14/09:30pm 20.3 20.6 17.9 86 1.5 ESE 13 15 7 8 1011.8 1007.5 0.0
14/09:00pm 20.6 20.8 17.6 83 1.9 ESE 13 19 7 10 1011.8 1007.5 0.0
14/08:30pm 21.6 21.0 17.6 78 2.5 SE 17 20 9 11 1011.8 1007.5 0.0
14/08:00pm 21.8 20.4 18.0 79 2.4 SE 22 26 12 14 1011.8 1007.5 0.0
14/07:30pm 22.4 21.4 18.0 76 2.8 SE 20 24 11 13 1011.6 1007.2 0.0
14/07:00pm 22.6 22.1 17.7 74 3.1 SE 17 22 9 12 1011.5 1007.1 0.0
14/06:30pm 23.2 23.6 18.1 73 3.3 SE 13 17 7 9 1011.2 1006.9 0.0

Other formats

Comma delimited format used in spreadsheet applications
http://www.bom.gov.au/fwo/IDN60801/IDN60801.95747.axf

JavaScript Object Notation format (JSON) in row-major order
http://www.bom.gov.au/fwo/IDN60801/IDN60801.95747.json

Data quality

Most of these data are generated automatically and are frequently updated. Quality checks on data are not normally performed. It is possible for incorrect values to appear. Refer to information at About Latest Weather Observations and please check the disclaimer before using these data.